默认 日期 大小 文件数 浏览量 最新下载 xml
10-c磁力链接相关资源由用户搜索指令自动获取,结果来源于网络,本站不存储任何资料,亦不承担任何责任,请于24小时内删除,搜索到1962个磁力,用时44ms。
    {"Sample's": {"SAMPLE.avi": 7184384, "Sample.jpg": 190278}, "10,000 B.C - 700MB.avi": 701333504, "Dragon - Open with NotePad.nfo": 3547, "Torrent_downloaded_from_Demonoid.com.txt": 47}
创建时间: 2019-11-29 22:11:11 大小:675.88 MB 文件数量:5 热度:7 最近下载:2023-12-26 02:06:02
    {"ieva.nfo": 2105, "RARBG.txt": 30, "file_id.diz": 392, "969_0001.jpg": 1488952, "969_0002.jpg": 1349842, "969_0003.jpg": 1356008, "969_0004.jpg": 1236176, "969_0005.jpg": 1353871, "969_0006.jpg": 1287322, "969_0007.jpg": 1443872, "969_0008.jpg": 1339266, ...
创建时间: 2019-12-03 23:52:37 大小:211.42 MB 文件数量:133 热度:7 最近下载:2025-08-04 07:44:06
    {"poster.jpg": 28959, "screens.jpg": 563909, "joymii.15.02.10.sofia.c.meet.sofia.mp4": 443251217}
创建时间: 2019-12-05 00:58:15 大小:423.28 MB 文件数量:3 热度:8 最近下载:2025-08-02 05:57:07
    {"file_id.diz": 69, "gagball.nfo": 234, "RARBG.com.txt": 34, "femjoy_116923_001.jpg": 2514640, "femjoy_116923_002.jpg": 2729486, "femjoy_116923_003.jpg": 2939656, "femjoy_116923_004.jpg": 2707564, "femjoy_116923_005.jpg": 2950119, "femjoy_116923_006.jpg": ...
创建时间: 2019-12-05 03:59:21 大小:228.95 MB 文件数量:100 热度:10 最近下载:2025-06-11 06:47:01
    ... "Jondelle.txt": 679, "E. C. Tubb - DT10 Jondelle 01 of ... 21.mp3": 12016434, "E. C. Tubb - DT10 Jondelle 04 ... .mp3": 12319871, "E. C. Tubb - DT10 Jondelle 05 ... 10793695, "E. C. Tubb - DT10 Jondelle 10 of 21.mp3": ... 7740714, "E. C. Tubb - ...
创建时间: 2019-12-05 07:39:40 大小:174.96 MB 文件数量:24 热度:5 最近下载:2025-01-03 00:53:04
    {"poster.jpg": 28959, "screens.jpg": 563909, "RARBG.com.txt": 33, "joymii.15.02.10.sofia.c.meet.sofia.mp4": 443251217}
创建时间: 2019-12-09 00:08:37 大小:423.28 MB 文件数量:4 热度:9 最近下载:2025-10-01 14:12:08
    {"AbbyWinters.15.10.10.Ella.C.And.Renae.D.Lesbian.XXX.1080p.mp4": 2635362810}
创建时间: 2019-12-10 15:18:36 大小:2.45 GB 文件数量:1 热度:10 最近下载:2025-04-20 21:46:01
    ... gagball.nfo": 229, "model-bio_Regina-C.txt": 44, "RARBG_DO_NOT_MIRROR.exe": 99 ... .jpg": 517081, "_domai-regina-c-1-cover.jpg": 353663, ... "domai-regina-c-1-cover-clean.jpg": ... 353663, "domai_regina-c-1_regina-c_high_0001.jpg": 1638394, " ...
创建时间: 2019-12-11 23:24:38 大小:97.81 MB 文件数量:60 热度:10 最近下载:2025-08-09 07:44:03
    ... @���J�c�׾�.txt": 33, "� ... @���J�c�׾� - Powered by Discuz ...
创建时间: 2019-12-13 01:47:52 大小:10.26 GB 文件数量:57 热度:18 最近下载:2025-09-20 06:45:03
    {"wiecej fajnych fimow.url": 112, "www.polskie-torrenty.pl.url": 112, "10.000 B.C. (2008) Lektor Pl.avi": 735397888, "Upload dla Polskie-Torrenty.pl.txt": 2869}
创建时间: 2019-12-21 01:57:25 大小:701.33 MB 文件数量:4 热度:9 最近下载:2025-03-10 16:22:02
    {"cplusplus.ps.zip": 4710902, "cplusplus.yo.zip": 1719774, "cplusplus.pdf.zip": 10065596, "cplusplus.txt.zip": 586946, "cplusplus.html.zip": 973399, "cppannotations-10.7.2.zip": 7328201, "cppannotations-10.7.2.tar.gz": 6671145}
创建时间: 2019-12-21 12:26:12 大小:30.57 MB 文件数量:7 热度:6 最近下载:2024-12-06 20:47:01
    {"RARBG.txt": 30, "thelifeerotic.17.10.15.natalia.c.instincts.mp4": 485703368, "thelifeerotic.17.10.15.natalia.c.instincts.nfo": 5200}
创建时间: 2019-12-23 00:52:49 大小:463.21 MB 文件数量:3 热度:9 最近下载:2023-12-29 18:29:03
    ... , "Deeper.10_14.jpg": 83332, "D.C.���T� ... ��-.txt": 953, "Deeper.10.2007.720p.XXX.BluRay.x264 ... -CtrlHD.mkv": 4691828347, "D.C.���T� ...
创建时间: 2019-12-28 00:26:36 大小:4.37 GB 文件数量:17 热度:26 最近下载:2025-10-02 15:28:05
    ... ": 1298257, "[18onlygirls] 2011-10-22 Guerlain ( Lily C) Colorful Stranger (x107) 2667x4000 ...
创建时间: 2019-12-30 07:14:38 大小:356.17 MB 文件数量:116 热度:19 最近下载:2025-09-11 13:21:02
    {"top.jpg": 105686, "nr0003_01.wmv": 199546074, "nr0003_02.wmv": 200618098, "nr0003_03.wmv": 85159404, "nr0003_04.wmv": 261387514, "nr0003_05.wmv": 176793540, "300avi.com.url": 211, "SpeedPluss�׾�.html": 1564, "mybmw320_by_SpeedPluss.ORG.txt": 112, " ...
创建时间: 2020-01-02 00:45:21 大小:880.83 MB 文件数量:12 热度:15 最近下载:2025-09-13 22:07:02
    {"001.jpg": 439434, "002.jpg": 382536, "003.jpg": 423586, "004.jpg": 642004, "005.jpg": 584094, "006.jpg": 603934, "007.jpg": 686983, "008.jpg": 629264, "009.jpg": 478339, "010.jpg": 619263, "011.jpg": 706899, "012.jpg": 623009, "013.jpg": 639674, "014.jpg ...
创建时间: 2020-01-02 05:42:28 大小:107.83 MB 文件数量:137 热度:19 最近下载:2025-05-24 02:21:02
    {"VCR_Hyb_x86_19.10.2019": {"2-VCR_Hyb": {"Run": 16, " ... ": 25846476}}}, "Html.nfo": 8543}}, "VCR_Hyb_x86_x64_19.10.2019": {"2-VCR_Hyb": {"Run": 16 ...
创建时间: 2020-01-02 13:10:16 大小:66.83 MB 文件数量:6 热度:7 最近下载:2025-02-03 04:02:01
    {"AbbyWinters.15.10.27.Brooklyn.And.Ella.C.Intimate.Moments.XXX.HR.MP4-KTR.mp4": 517241914}
创建时间: 2020-01-04 09:43:22 大小:493.28 MB 文件数量:1 热度:11 最近下载:2025-05-15 16:41:01
    {"JC-Simpson-HD_26201_Large.wmv": 312954699}
创建时间: 2020-01-04 11:04:07 大小:298.46 MB 文件数量:1 热度:13 最近下载:2025-07-17 08:14:02
    {"1 тайм.mkv": 861446117, "2 тайм.mkv": 798141972}
创建时间: 2020-01-07 06:37:46 大小:1.55 GB 文件数量:2 热度:9 最近下载:2025-09-12 13:15:23